Lake Oke South End current weather conditions

sailwx.info

Wind from 184 at 7 knots gusting 8

Air temperature 27.5° C
Dewpoint 25.4° C
Water temperature -7999.0° C

Last reported at 2019-Jul-24 03:45 UTC.
Time now 2019-Jul-24 04:30 UTC

Location: N 26°49' W 080°47'.
View on Google Maps.

See reports from other nearby stations

  
Tides and Currents Weather Stations Pressure Air Temp Water Temp Dewpoint Dewpoint Depression Visibility Wind Speed Wind Dir Waves Ship Positions
date/time (UTC)wind fromknots sea level pressurealtimeterstation pressurevisibilityair tempwater tempwave heightnotes
2019-Jul-24 03:45 184 7 gusting 8 27.5-7999.0
2019-Jul-24 03:30 185 5 gusting 7 28.0-7999.0
2019-Jul-24 03:15 210 5 gusting 6 28.1-7999.0
2019-Jul-24 03:00 223 5 gusting 6 28.0-7999.0
2019-Jul-24 02:45 232 4 gusting 5 28.0-7999.0
2019-Jul-24 02:30 230 4 gusting 6 27.9-7999.0
2019-Jul-24 02:15 227 4 gusting 5 28.0-7999.0
2019-Jul-24 02:00 224 3 gusting 5 28.0-7999.0
2019-Jul-24 01:45 228 4 gusting 6 28.1-7999.0
2019-Jul-24 01:30 232 4 gusting 6 28.1-7999.0
2019-Jul-24 01:15 242 4 gusting 6 28.1-7999.0
2019-Jul-24 01:00 259 6 gusting 8 28.2-7999.0
2019-Jul-24 00:45 248 8 gusting 10 28.4-7999.0
2019-Jul-24 00:30 242 8 gusting 10 28.5-7999.0
2019-Jul-24 00:15 237 9 gusting 11 28.6-7999.0
2019-Jul-24 00:00 246 10 gusting 11 28.6-7999.0
2019-Jul-23 23:45 251 10 gusting 12 28.7-7999.0
2019-Jul-23 23:30 237 7 gusting 12 28.5-7999.0
2019-Jul-23 23:15 235 6 gusting 8 28.4-7999.0
2019-Jul-23 23:00 244 9 gusting 12 28.1-7999.0
2019-Jul-23 22:45 249 11 gusting 13 28.3-7999.0
2019-Jul-23 22:30 249 11 gusting 12 28.6-7999.0
2019-Jul-23 22:15 256 10 gusting 12 28.5-7999.0
2019-Jul-23 22:00 248 10 gusting 14 28.5-7999.0
2019-Jul-23 21:45 246 12 gusting 13 28.3-7999.0
2019-Jul-23 21:30 247 12 gusting 15 28.4-7999.0
2019-Jul-23 21:15 249 13 gusting 16 28.7-7999.0
2019-Jul-23 21:00 242 16 gusting 20 28.8-7999.0
2019-Jul-23 20:45 257 11 gusting 13 28.5-7999.0
2019-Jul-23 20:30 257 10 gusting 12 28.4-7999.0
2019-Jul-23 20:15 254 11 gusting 14 28.5-7999.0
2019-Jul-23 20:00 273 11 gusting 13 28.0-7999.0
2019-Jul-23 19:45 274 12 gusting 14 27.9-7999.0
2019-Jul-23 19:30 272 11 gusting 13 28.2-7999.0
2019-Jul-23 19:15 268 11 gusting 13 27.8-7999.0
2019-Jul-23 19:00 271 11 gusting 14 26.9-7999.0
2019-Jul-23 18:45 277 14 gusting 18 26.6-7999.0
2019-Jul-23 18:30 268 18 gusting 23 27.4-7999.0
2019-Jul-23 18:15 235 10 gusting 22 30.1-7999.0
2019-Jul-23 18:00 213 5 gusting 7 30.2-7999.0
2019-Jul-23 17:45 207 3 gusting 6 29.9-7999.0
2019-Jul-23 17:30 210 3 gusting 4 29.7-7999.0
2019-Jul-23 17:15 209 2 gusting 4 29.6-7999.0
2019-Jul-23 17:00 215 3 gusting 4 29.5-7999.0
2019-Jul-23 16:45 212 4 gusting 5 29.3-7999.0
2019-Jul-23 16:30 212 2 gusting 4 29.1-7999.0
2019-Jul-23 16:15 193 2 gusting 4 28.6-7999.0
2019-Jul-23 16:00 188 4 gusting 5 28.3-7999.0
2019-Jul-23 15:45 191 5 gusting 7 28.2-7999.0
2019-Jul-23 15:30 195 5 gusting 7 28.0-7999.0
2019-Jul-23 15:15 200 5 gusting 6 27.8-7999.0
2019-Jul-23 15:00 194 6 gusting 7 27.7-7999.0
2019-Jul-23 14:45 190 5 gusting 7 27.4-7999.0
2019-Jul-23 14:30 188 6 gusting 8 27.2-7999.0
2019-Jul-23 14:15 192 7 gusting 9 26.9-7999.0
2019-Jul-23 14:00 180 9 gusting 10 26.5-7999.0
2019-Jul-23 13:45 182 7 gusting 9 26.4-7999.0
2019-Jul-23 13:30 183 6 gusting 7 26.3-7999.0
2019-Jul-23 13:15 178 7 gusting 9 26.2-7999.0
2019-Jul-23 13:00 175 7 gusting 8 26.2-7999.0
2019-Jul-23 12:45 177 6 gusting 7 26.4-7999.0
2019-Jul-23 12:30 184 5 gusting 6 26.2-7999.0
2019-Jul-23 12:15 197 5 gusting 6 26.2-7999.0
2019-Jul-23 12:00 208 5 gusting 7 26.4-7999.0
2019-Jul-23 11:45 220 5 gusting 6 26.4-7999.0
2019-Jul-23 11:30 229 5 gusting 7 26.5-7999.0
2019-Jul-23 11:15 235 3 gusting 6 26.5-7999.0
2019-Jul-23 11:00 238 26.5-7999.0
2019-Jul-23 10:45 258 26.5-7999.0
2019-Jul-23 10:30 274 26.4-7999.0
2019-Jul-23 10:15 281 26.4-7999.0
2019-Jul-23 10:00 282 0 gusting 1 26.5-7999.0
2019-Jul-23 09:45 286 1 gusting 4 26.4-7999.0
2019-Jul-23 09:30 303 2 gusting 4 26.3-7999.0
2019-Jul-23 09:15 300 3 gusting 5 26.3-7999.0
2019-Jul-23 09:00 314 3 gusting 5 26.4-7999.0
2019-Jul-23 08:45 317 5 gusting 6 26.4-7999.0
2019-Jul-23 08:30 324 5 gusting 7 26.4-7999.0
2019-Jul-23 08:15 317 5 gusting 8 26.8-7999.0
2019-Jul-23 08:00 325 3 gusting 5 26.7-7999.0
2019-Jul-23 07:45 333 4 gusting 6 26.7-7999.0
2019-Jul-23 07:30 294 3 gusting 5 26.7-7999.0
2019-Jul-23 07:15 234 0 gusting 3 26.5-7999.0
2019-Jul-23 07:00 128 1 gusting 4 26.5-7999.0
2019-Jul-23 06:45 085 1 gusting 5 26.6-7999.0
2019-Jul-23 06:30 249 2 gusting 4 26.4-7999.0
2019-Jul-23 06:15 334 3 gusting 5 26.6-7999.0
2019-Jul-23 06:00 318 2 gusting 5 26.5-7999.0
2019-Jul-23 05:45 302 3 gusting 5 26.6-7999.0
2019-Jul-23 05:30 306 0 gusting 4 26.6-7999.0
2019-Jul-23 05:15 291 26.6-7999.0
2019-Jul-23 05:00 315 26.6-7999.0
2019-Jul-23 04:45 319 26.6-7999.0
2019-Jul-23 04:30 095 0 gusting 2 26.7-7999.0
2019-Jul-23 04:15 038 0 gusting 3 26.6-7999.0
2019-Jul-23 04:00 019 1 gusting 3 26.6-7999.0
2019-Jul-23 03:45 019 0 gusting 2 26.5-7999.0
2019-Jul-23 03:30 273 26.3-7999.0
2019-Jul-23 03:15 304 0 gusting 3 26.2-7999.0
2019-Jul-23 03:00 284 0 gusting 2 25.9-7999.0
2019-Jul-23 02:45 277 0 gusting 1 25.8-7999.0
2019-Jul-23 02:30 241 2 gusting 4 25.6-7999.0
2019-Jul-23 02:15 237 3 gusting 6 25.5-7999.0
2019-Jul-23 02:00 234 5 gusting 6 25.6-7999.0
2019-Jul-23 01:45 230 4 gusting 5 25.6-7999.0
2019-Jul-23 01:30 225 4 gusting 6 25.5-7999.0
2019-Jul-23 01:15 241 4 gusting 5 25.6-7999.0
2019-Jul-23 01:00 233 6 gusting 8 25.5-7999.0
2019-Jul-23 00:45 239 8 gusting 10 25.6-7999.0
2019-Jul-23 00:30 237 10 gusting 11 25.8-7999.0
2019-Jul-23 00:15 234 11 gusting 12 26.0-7999.0
2019-Jul-23 00:00 233 10 gusting 12 26.2-7999.0
2019-Jul-22 23:45 220 9 gusting 13 26.5-7999.0
2019-Jul-22 23:30 213 7 gusting 10 26.7-7999.0
2019-Jul-22 23:15 179 7 gusting 11 27.4-7999.0
2019-Jul-22 23:00 103 6 gusting 8 27.8-7999.0
2019-Jul-22 22:45 082 7 gusting 9 27.8-7999.0
2019-Jul-22 22:30 073 8 gusting 9 27.7-7999.0
2019-Jul-22 22:15 073 10 gusting 12 27.6-7999.0
2019-Jul-22 22:00 084 9 gusting 11 27.3-7999.0
2019-Jul-22 21:45 096 10 gusting 18 26.8-7999.0
2019-Jul-22 21:30 112 10 gusting 17 25.9-7999.0
2019-Jul-22 21:15 104 15 gusting 19 25.5-7999.0
2019-Jul-22 21:00 090 18 gusting 22 25.2-7999.0
2019-Jul-22 20:45 089 20 gusting 23 26.1-7999.0
2019-Jul-22 20:15 061 23 gusting 27 26.6-7999.0
2019-Jul-22 20:00 047 25 gusting 30 27.8-7999.0
2019-Jul-22 19:45 024 17 gusting 21 29.8-7999.0
2019-Jul-22 19:30 024 11 gusting 13 29.7-7999.0
2019-Jul-22 19:15 118 6 gusting 13 30.7-7999.0
2019-Jul-22 19:00 325 30.9-7999.0
2019-Jul-22 18:45 285 2 gusting 6 30.4-7999.0
2019-Jul-22 18:30 317 3 gusting 6 30.5-7999.0
2019-Jul-22 18:15 302 1 gusting 4 30.5-7999.0
2019-Jul-22 18:00 314 3 gusting 5 30.1-7999.0
2019-Jul-22 17:45 313 3 gusting 5 30.1-7999.0
2019-Jul-22 17:30 307 4 gusting 6 29.9-7999.0
2019-Jul-22 17:15 314 5 gusting 6 29.9-7999.0
2019-Jul-22 17:00 311 4 gusting 6 29.6-7999.0
2019-Jul-22 16:45 310 5 gusting 6 29.7-7999.0
2019-Jul-22 16:30 303 3 gusting 5 29.7-7999.0
2019-Jul-22 16:15 316 1 gusting 3 29.7-7999.0
2019-Jul-22 16:00 329 0 gusting 1 29.4-7999.0
2019-Jul-22 15:45 234 29.3-7999.0
2019-Jul-22 15:30 102 29.1-7999.0
2019-Jul-22 15:15 027 0 gusting 3 28.9-7999.0
2019-Jul-22 15:00 036 0 gusting 2 28.9-7999.0
2019-Jul-22 14:45 054 0 gusting 2 28.7-7999.0
2019-Jul-22 14:30 065 3 gusting 5 28.3-7999.0
2019-Jul-22 14:15 065 4 gusting 6 28.1-7999.0
2019-Jul-22 14:00 060 6 gusting 7 28.0-7999.0
2019-Jul-22 13:45 063 6 gusting 7 28.0-7999.0
2019-Jul-22 13:30 059 5 gusting 7 27.8-7999.0
2019-Jul-22 13:15 056 5 gusting 7 27.4-7999.0
2019-Jul-22 13:00 059 5 gusting 6 27.4-7999.0
2019-Jul-22 12:45 060 5 gusting 6 27.3-7999.0
2019-Jul-22 12:30 062 5 gusting 6 27.3-7999.0
2019-Jul-22 12:15 062 5 gusting 6 27.2-7999.0
2019-Jul-22 12:00 060 5 gusting 6 27.2-7999.0
2019-Jul-22 11:45 060 4 gusting 5 27.2-7999.0
2019-Jul-22 11:30 050 3 gusting 5 27.1-7999.0
2019-Jul-22 11:15 049 4 gusting 5 27.0-7999.0
2019-Jul-22 11:00 045 4 gusting 5 26.9-7999.0
2019-Jul-22 10:45 039 4 gusting 5 26.9-7999.0
2019-Jul-22 10:30 037 4 gusting 5 26.8-7999.0
2019-Jul-22 10:15 026 5 gusting 6 26.8-7999.0
2019-Jul-22 10:00 027 4 gusting 6 26.9-7999.0
2019-Jul-22 09:45 028 4 gusting 5 26.7-7999.0
2019-Jul-22 09:30 021 4 gusting 6 26.6-7999.0
2019-Jul-22 09:15 022 4 gusting 5 26.5-7999.0
2019-Jul-22 09:00 025 5 gusting 6 26.6-7999.0
2019-Jul-22 08:45 014 5 gusting 6 26.7-7999.0
2019-Jul-22 08:30 049 4 gusting 5 26.9-7999.0
2019-Jul-22 08:15 021 4 gusting 5 26.9-7999.0
2019-Jul-22 08:00 017 4 gusting 5 26.8-7999.0
2019-Jul-22 07:45 019 3 gusting 4 26.8-7999.0
2019-Jul-22 07:30 021 4 gusting 5 26.7-7999.0
2019-Jul-22 07:15 035 4 gusting 5 26.8-7999.0
2019-Jul-22 07:00 042 1 gusting 5 26.7-7999.0
2019-Jul-22 06:45 041 26.6-7999.0
2019-Jul-22 06:30 037 26.5-7999.0
2019-Jul-22 06:15 050 1 gusting 4 26.6-7999.0
2019-Jul-22 06:00 066 3 gusting 5 26.8-7999.0
2019-Jul-22 05:45 053 3 gusting 5 27.1-7999.0
2019-Jul-22 05:30 043 4 gusting 5 27.0-7999.0
2019-Jul-22 05:15 041 3 gusting 5 27.0-7999.0
2019-Jul-22 05:00 039 3 gusting 5 26.9-7999.0
2019-Jul-22 04:45 038 3 gusting 4 26.8-7999.0
2019-Jul-22 04:30 030 1 gusting 4 26.7-7999.0
2019-Jul-22 04:15 033 1 gusting 4 26.5-7999.0
2019-Jul-22 04:00 108 1 gusting 5 26.4-7999.0